sensor_id;sensor_type;location;lat;lon;timestamp;P1;durP1;ratioP1;P2;durP2;ratioP2
3718;SDS011;1875;52.492;6.860;2023-02-28T00:01:37;7.30;;;3.37;;
3718;SDS011;1875;52.492;6.860;2023-02-28T00:04:05;6.37;;;4.13;;
3718;SDS011;1875;52.492;6.860;2023-02-28T00:06:35;6.43;;;3.60;;
3718;SDS011;1875;52.492;6.860;2023-02-28T00:09:03;8.63;;;4.20;;
3718;SDS011;1875;52.492;6.860;2023-02-28T00:11:30;10.33;;;3.47;;
3718;SDS011;1875;52.492;6.860;2023-02-28T00:13:58;6.00;;;3.50;;
3718;SDS011;1875;52.492;6.860;2023-02-28T00:16:27;5.83;;;3.23;;
3718;SDS011;1875;52.492;6.860;2023-02-28T00:18:55;9.00;;;3.40;;
3718;SDS011;1875;52.492;6.860;2023-02-28T00:21:23;8.17;;;4.77;;
3718;SDS011;1875;52.492;6.860;2023-02-28T00:23:51;7.40;;;3.27;;
3718;SDS011;1875;52.492;6.860;2023-02-28T00:26:18;8.87;;;3.43;;
3718;SDS011;1875;52.492;6.860;2023-02-28T00:28:47;5.90;;;3.50;;
3718;SDS011;1875;52.492;6.860;2023-02-28T00:31:15;5.17;;;3.07;;
3718;SDS011;1875;52.492;6.860;2023-02-28T00:33:44;6.63;;;3.67;;
3718;SDS011;1875;52.492;6.860;2023-02-28T00:36:12;11.90;;;4.00;;
3718;SDS011;1875;52.492;6.860;2023-02-28T00:38:40;5.57;;;3.43;;
3718;SDS011;1875;52.492;6.860;2023-02-28T00:41:08;6.93;;;3.30;;
3718;SDS011;1875;52.492;6.860;2023-02-28T00:43:37;6.20;;;3.47;;
3718;SDS011;1875;52.492;6.860;2023-02-28T00:46:05;7.97;;;5.33;;
3718;SDS011;1875;52.492;6.860;2023-02-28T00:48:34;7.80;;;3.50;;
3718;SDS011;1875;52.492;6.860;2023-02-28T00:51:04;11.43;;;3.43;;
3718;SDS011;1875;52.492;6.860;2023-02-28T00:53:32;6.73;;;3.23;;
3718;SDS011;1875;52.492;6.860;2023-02-28T00:56:00;6.47;;;3.40;;
3718;SDS011;1875;52.492;6.860;2023-02-28T00:58:28;9.50;;;3.20;;
3718;SDS011;1875;52.492;6.860;2023-02-28T01:00:56;10.57;;;3.90;;
3718;SDS011;1875;52.492;6.860;2023-02-28T01:03:24;8.87;;;4.40;;
3718;SDS011;1875;52.492;6.860;2023-02-28T01:05:52;6.70;;;3.83;;
3718;SDS011;1875;52.492;6.860;2023-02-28T01:08:21;10.87;;;3.77;;
3718;SDS011;1875;52.492;6.860;2023-02-28T01:10:49;6.03;;;3.90;;
3718;SDS011;1875;52.492;6.860;2023-02-28T01:13:17;9.57;;;4.13;;
3718;SDS011;1875;52.492;6.860;2023-02-28T01:15:46;7.07;;;3.53;;
3718;SDS011;1875;52.492;6.860;2023-02-28T01:18:17;9.83;;;5.30;;
3718;SDS011;1875;52.492;6.860;2023-02-28T01:20:44;10.33;;;5.37;;
3718;SDS011;1875;52.492;6.860;2023-02-28T01:23:12;10.30;;;4.73;;
3718;SDS011;1875;52.492;6.860;2023-02-28T01:25:41;12.20;;;5.10;;
3718;SDS011;1875;52.492;6.860;2023-02-28T01:28:09;8.77;;;4.53;;
3718;SDS011;1875;52.492;6.860;2023-02-28T01:30:37;11.63;;;4.60;;
3718;SDS011;1875;52.492;6.860;2023-02-28T01:33:04;7.67;;;3.73;;
3718;SDS011;1875;52.492;6.860;2023-02-28T01:35:32;12.07;;;3.97;;
3718;SDS011;1875;52.492;6.860;2023-02-28T01:38:00;9.83;;;4.30;;
3718;SDS011;1875;52.492;6.860;2023-02-28T01:40:47;7.87;;;4.10;;
3718;SDS011;1875;52.492;6.860;2023-02-28T01:43:17;5.50;;;3.67;;
3718;SDS011;1875;52.492;6.860;2023-02-28T01:45:47;7.97;;;3.57;;
3718;SDS011;1875;52.492;6.860;2023-02-28T01:48:15;7.23;;;4.13;;
3718;SDS011;1875;52.492;6.860;2023-02-28T01:50:43;6.60;;;3.47;;
3718;SDS011;1875;52.492;6.860;2023-02-28T01:53:13;7.53;;;3.70;;
3718;SDS011;1875;52.492;6.860;2023-02-28T01:55:42;8.53;;;3.80;;
3718;SDS011;1875;52.492;6.860;2023-02-28T01:58:15;6.10;;;3.87;;
3718;SDS011;1875;52.492;6.860;2023-02-28T02:00:43;7.27;;;3.63;;
3718;SDS011;1875;52.492;6.860;2023-02-28T02:03:12;11.70;;;4.50;;
3718;SDS011;1875;52.492;6.860;2023-02-28T02:05:42;10.13;;;4.03;;
3718;SDS011;1875;52.492;6.860;2023-02-28T02:08:15;6.37;;;4.17;;
3718;SDS011;1875;52.492;6.860;2023-02-28T02:10:45;7.07;;;4.97;;
3718;SDS011;1875;52.492;6.860;2023-02-28T02:16:17;6.73;;;3.77;;
3718;SDS011;1875;52.492;6.860;2023-02-28T02:18:52;7.93;;;3.60;;
3718;SDS011;1875;52.492;6.860;2023-02-28T02:21:44;8.67;;;3.93;;
3718;SDS011;1875;52.492;6.860;2023-02-28T02:27:17;5.97;;;3.43;;
3718;SDS011;1875;52.492;6.860;2023-02-28T02:29:57;5.83;;;4.03;;
3718;SDS011;1875;52.492;6.860;2023-02-28T02:35:40;10.23;;;3.93;;
3718;SDS011;1875;52.492;6.860;2023-02-28T02:38:09;8.40;;;4.70;;
3718;SDS011;1875;52.492;6.860;2023-02-28T02:40:42;9.47;;;4.20;;
3718;SDS011;1875;52.492;6.860;2023-02-28T02:43:12;8.10;;;3.93;;
3718;SDS011;1875;52.492;6.860;2023-02-28T02:45:43;8.47;;;4.30;;
3718;SDS011;1875;52.492;6.860;2023-02-28T02:48:15;5.27;;;3.73;;
3718;SDS011;1875;52.492;6.860;2023-02-28T02:50:46;5.93;;;3.97;;
3718;SDS011;1875;52.492;6.860;2023-02-28T02:53:17;8.07;;;4.37;;
3718;SDS011;1875;52.492;6.860;2023-02-28T02:55:47;9.80;;;4.60;;
3718;SDS011;1875;52.492;6.860;2023-02-28T02:58:22;8.37;;;4.90;;
3718;SDS011;1875;52.492;6.860;2023-02-28T03:00:53;8.77;;;5.13;;
3718;SDS011;1875;52.492;6.860;2023-02-28T03:03:22;10.33;;;4.90;;
3718;SDS011;1875;52.492;6.860;2023-02-28T03:05:56;13.77;;;4.63;;
3718;SDS011;1875;52.492;6.860;2023-02-28T03:08:25;7.83;;;4.70;;
3718;SDS011;1875;52.492;6.860;2023-02-28T03:10:55;7.00;;;4.53;;
3718;SDS011;1875;52.492;6.860;2023-02-28T03:13:40;7.90;;;5.00;;
3718;SDS011;1875;52.492;6.860;2023-02-28T03:16:28;13.93;;;4.80;;
3718;SDS011;1875;52.492;6.860;2023-02-28T03:19:06;12.23;;;4.67;;
3718;SDS011;1875;52.492;6.860;2023-02-28T03:21:57;9.97;;;5.10;;
3718;SDS011;1875;52.492;6.860;2023-02-28T03:24:45;6.57;;;4.57;;
3718;SDS011;1875;52.492;6.860;2023-02-28T03:27:20;15.27;;;5.60;;
3718;SDS011;1875;52.492;6.860;2023-02-28T03:29:51;12.23;;;5.73;;
3718;SDS011;1875;52.492;6.860;2023-02-28T03:32:25;10.43;;;4.43;;
3718;SDS011;1875;52.492;6.860;2023-02-28T03:34:56;7.93;;;5.63;;
3718;SDS011;1875;52.492;6.860;2023-02-28T03:37:27;9.13;;;4.27;;
3718;SDS011;1875;52.492;6.860;2023-02-28T03:39:57;8.07;;;4.60;;
3718;SDS011;1875;52.492;6.860;2023-02-28T03:42:28;9.97;;;4.53;;
3718;SDS011;1875;52.492;6.860;2023-02-28T03:44:57;12.33;;;4.77;;
3718;SDS011;1875;52.492;6.860;2023-02-28T03:47:27;8.23;;;5.03;;
3718;SDS011;1875;52.492;6.860;2023-02-28T03:49:57;7.90;;;4.40;;
3718;SDS011;1875;52.492;6.860;2023-02-28T03:52:28;15.20;;;5.30;;
3718;SDS011;1875;52.492;6.860;2023-02-28T03:55:00;7.40;;;4.60;;
3718;SDS011;1875;52.492;6.860;2023-02-28T03:57:33;9.13;;;5.00;;
3718;SDS011;1875;52.492;6.860;2023-02-28T04:00:06;8.63;;;4.97;;
3718;SDS011;1875;52.492;6.860;2023-02-28T04:02:38;7.33;;;4.97;;
3718;SDS011;1875;52.492;6.860;2023-02-28T04:05:06;12.57;;;4.67;;
3718;SDS011;1875;52.492;6.860;2023-02-28T04:07:36;8.20;;;4.73;;
3718;SDS011;1875;52.492;6.860;2023-02-28T04:10:04;8.97;;;5.53;;
3718;SDS011;1875;52.492;6.860;2023-02-28T04:12:32;10.53;;;4.50;;
3718;SDS011;1875;52.492;6.860;2023-02-28T04:15:00;11.97;;;4.67;;
3718;SDS011;1875;52.492;6.860;2023-02-28T04:17:27;10.47;;;4.83;;
3718;SDS011;1875;52.492;6.860;2023-02-28T04:19:55;8.97;;;5.27;;
3718;SDS011;1875;52.492;6.860;2023-02-28T04:22:23;9.27;;;5.53;;
3718;SDS011;1875;52.492;6.860;2023-02-28T04:24:54;6.23;;;4.33;;
3718;SDS011;1875;52.492;6.860;2023-02-28T04:27:22;8.30;;;4.57;;
3718;SDS011;1875;52.492;6.860;2023-02-28T04:29:49;8.00;;;4.80;;
3718;SDS011;1875;52.492;6.860;2023-02-28T04:32:17;6.03;;;4.60;;
3718;SDS011;1875;52.492;6.860;2023-02-28T04:34:45;8.00;;;4.70;;
3718;SDS011;1875;52.492;6.860;2023-02-28T04:37:13;9.70;;;5.03;;
3718;SDS011;1875;52.492;6.860;2023-02-28T04:39:40;7.57;;;4.87;;
3718;SDS011;1875;52.492;6.860;2023-02-28T04:42:10;9.10;;;5.07;;
3718;SDS011;1875;52.492;6.860;2023-02-28T04:44:38;8.83;;;5.37;;
3718;SDS011;1875;52.492;6.860;2023-02-28T04:47:06;7.60;;;4.87;;
3718;SDS011;1875;52.492;6.860;2023-02-28T04:49:34;11.97;;;5.20;;
3718;SDS011;1875;52.492;6.860;2023-02-28T04:52:01;9.27;;;5.00;;
3718;SDS011;1875;52.492;6.860;2023-02-28T04:54:29;7.00;;;4.97;;
3718;SDS011;1875;52.492;6.860;2023-02-28T04:56:57;6.07;;;4.90;;
3718;SDS011;1875;52.492;6.860;2023-02-28T04:59:26;7.47;;;5.17;;
3718;SDS011;1875;52.492;6.860;2023-02-28T05:01:54;10.97;;;6.27;;
3718;SDS011;1875;52.492;6.860;2023-02-28T05:04:22;7.97;;;4.87;;
3718;SDS011;1875;52.492;6.860;2023-02-28T05:06:49;8.27;;;5.20;;
3718;SDS011;1875;52.492;6.860;2023-02-28T05:09:17;13.60;;;4.77;;
3718;SDS011;1875;52.492;6.860;2023-02-28T05:11:45;9.60;;;5.23;;
3718;SDS011;1875;52.492;6.860;2023-02-28T05:14:13;7.40;;;5.10;;
3718;SDS011;1875;52.492;6.860;2023-02-28T05:16:42;14.07;;;5.37;;
3718;SDS011;1875;52.492;6.860;2023-02-28T05:19:10;13.53;;;5.00;;
3718;SDS011;1875;52.492;6.860;2023-02-28T05:21:38;10.17;;;5.83;;
3718;SDS011;1875;52.492;6.860;2023-02-28T05:24:09;8.80;;;4.90;;
3718;SDS011;1875;52.492;6.860;2023-02-28T05:26:39;5.37;;;4.50;;
3718;SDS011;1875;52.492;6.860;2023-02-28T05:29:08;8.87;;;5.10;;
3718;SDS011;1875;52.492;6.860;2023-02-28T05:31:36;10.63;;;5.47;;
3718;SDS011;1875;52.492;6.860;2023-02-28T05:34:05;7.40;;;4.40;;
3718;SDS011;1875;52.492;6.860;2023-02-28T05:36:33;10.70;;;5.13;;
3718;SDS011;1875;52.492;6.860;2023-02-28T05:39:01;6.93;;;4.90;;
3718;SDS011;1875;52.492;6.860;2023-02-28T05:41:29;6.40;;;4.93;;
3718;SDS011;1875;52.492;6.860;2023-02-28T05:43:57;10.93;;;5.90;;
3718;SDS011;1875;52.492;6.860;2023-02-28T05:46:25;7.70;;;4.93;;
3718;SDS011;1875;52.492;6.860;2023-02-28T05:48:53;8.23;;;5.17;;
3718;SDS011;1875;52.492;6.860;2023-02-28T05:51:23;7.87;;;4.90;;
3718;SDS011;1875;52.492;6.860;2023-02-28T05:53:51;9.63;;;5.33;;
3718;SDS011;1875;52.492;6.860;2023-02-28T05:56:18;8.83;;;4.90;;
3718;SDS011;1875;52.492;6.860;2023-02-28T05:58:46;10.07;;;5.50;;
3718;SDS011;1875;52.492;6.860;2023-02-28T06:01:21;7.00;;;4.53;;
3718;SDS011;1875;52.492;6.860;2023-02-28T06:03:50;11.93;;;4.20;;
3718;SDS011;1875;52.492;6.860;2023-02-28T06:06:18;6.20;;;4.57;;
3718;SDS011;1875;52.492;6.860;2023-02-28T06:08:47;6.40;;;4.70;;
3718;SDS011;1875;52.492;6.860;2023-02-28T06:11:15;7.33;;;4.97;;
3718;SDS011;1875;52.492;6.860;2023-02-28T06:13:42;8.43;;;4.87;;
3718;SDS011;1875;52.492;6.860;2023-02-28T06:16:10;7.77;;;4.40;;
3718;SDS011;1875;52.492;6.860;2023-02-28T06:18:38;6.87;;;4.40;;
3718;SDS011;1875;52.492;6.860;2023-02-28T06:21:06;6.43;;;4.67;;
3718;SDS011;1875;52.492;6.860;2023-02-28T06:23:35;13.27;;;5.47;;
3718;SDS011;1875;52.492;6.860;2023-02-28T06:26:04;14.00;;;6.07;;
3718;SDS011;1875;52.492;6.860;2023-02-28T06:28:32;23.43;;;10.20;;
3718;SDS011;1875;52.492;6.860;2023-02-28T06:31:05;56.50;;;19.87;;
3718;SDS011;1875;52.492;6.860;2023-02-28T06:33:34;37.20;;;15.93;;
3718;SDS011;1875;52.492;6.860;2023-02-28T06:36:02;15.73;;;7.17;;
3718;SDS011;1875;52.492;6.860;2023-02-28T06:38:30;13.27;;;7.47;;
3718;SDS011;1875;52.492;6.860;2023-02-28T06:40:58;13.23;;;6.87;;
3718;SDS011;1875;52.492;6.860;2023-02-28T06:43:28;6.40;;;4.60;;
3718;SDS011;1875;52.492;6.860;2023-02-28T06:45:59;5.87;;;3.80;;
3718;SDS011;1875;52.492;6.860;2023-02-28T06:48:27;6.27;;;3.40;;
3718;SDS011;1875;52.492;6.860;2023-02-28T06:51:01;10.10;;;3.33;;
3718;SDS011;1875;52.492;6.860;2023-02-28T06:53:29;5.80;;;3.73;;
3718;SDS011;1875;52.492;6.860;2023-02-28T06:55:57;6.63;;;4.00;;
3718;SDS011;1875;52.492;6.860;2023-02-28T06:58:25;6.93;;;4.17;;
3718;SDS011;1875;52.492;6.860;2023-02-28T07:00:54;6.00;;;4.50;;
3718;SDS011;1875;52.492;6.860;2023-02-28T07:03:22;6.23;;;4.47;;
3718;SDS011;1875;52.492;6.860;2023-02-28T07:05:50;7.47;;;5.20;;
3718;SDS011;1875;52.492;6.860;2023-02-28T07:08:18;13.07;;;6.30;;
3718;SDS011;1875;52.492;6.860;2023-02-28T07:10:45;13.87;;;6.73;;
3718;SDS011;1875;52.492;6.860;2023-02-28T07:13:13;11.00;;;6.00;;
3718;SDS011;1875;52.492;6.860;2023-02-28T07:15:41;9.53;;;5.93;;
3718;SDS011;1875;52.492;6.860;2023-02-28T07:18:10;7.27;;;5.67;;
3718;SDS011;1875;52.492;6.860;2023-02-28T07:20:38;10.30;;;5.10;;
3718;SDS011;1875;52.492;6.860;2023-02-28T07:23:06;10.07;;;5.63;;
3718;SDS011;1875;52.492;6.860;2023-02-28T07:25:33;15.73;;;7.87;;
3718;SDS011;1875;52.492;6.860;2023-02-28T07:28:01;9.57;;;5.40;;
3718;SDS011;1875;52.492;6.860;2023-02-28T07:30:29;8.57;;;4.70;;
3718;SDS011;1875;52.492;6.860;2023-02-28T07:32:57;5.83;;;4.23;;
3718;SDS011;1875;52.492;6.860;2023-02-28T07:35:26;9.37;;;4.40;;
3718;SDS011;1875;52.492;6.860;2023-02-28T07:37:53;6.70;;;4.13;;
3718;SDS011;1875;52.492;6.860;2023-02-28T07:40:21;6.30;;;3.43;;
3718;SDS011;1875;52.492;6.860;2023-02-28T07:42:49;7.50;;;3.63;;
3718;SDS011;1875;52.492;6.860;2023-02-28T07:45:17;6.43;;;3.67;;
3718;SDS011;1875;52.492;6.860;2023-02-28T07:47:45;6.30;;;3.33;;
3718;SDS011;1875;52.492;6.860;2023-02-28T07:50:14;4.20;;;2.80;;
3718;SDS011;1875;52.492;6.860;2023-02-28T07:52:44;4.30;;;2.90;;
3718;SDS011;1875;52.492;6.860;2023-02-28T07:55:11;5.57;;;3.33;;
3718;SDS011;1875;52.492;6.860;2023-02-28T07:57:40;5.13;;;3.00;;
3718;SDS011;1875;52.492;6.860;2023-02-28T08:00:08;4.37;;;2.83;;
3718;SDS011;1875;52.492;6.860;2023-02-28T08:02:38;3.97;;;2.43;;
3718;SDS011;1875;52.492;6.860;2023-02-28T08:05:07;5.57;;;2.60;;
3718;SDS011;1875;52.492;6.860;2023-02-28T08:07:35;7.20;;;2.77;;
3718;SDS011;1875;52.492;6.860;2023-02-28T08:10:04;6.27;;;2.50;;
3718;SDS011;1875;52.492;6.860;2023-02-28T08:12:33;3.67;;;1.93;;
3718;SDS011;1875;52.492;6.860;2023-02-28T08:15:01;5.23;;;2.40;;
3718;SDS011;1875;52.492;6.860;2023-02-28T08:17:28;4.67;;;2.20;;
3718;SDS011;1875;52.492;6.860;2023-02-28T08:19:58;6.17;;;2.60;;
3718;SDS011;1875;52.492;6.860;2023-02-28T08:22:26;5.57;;;2.00;;
3718;SDS011;1875;52.492;6.860;2023-02-28T08:24:53;5.43;;;1.70;;
3718;SDS011;1875;52.492;6.860;2023-02-28T08:27:22;4.03;;;1.80;;
3718;SDS011;1875;52.492;6.860;2023-02-28T08:29:50;3.77;;;1.93;;
3718;SDS011;1875;52.492;6.860;2023-02-28T08:32:18;6.93;;;3.53;;
3718;SDS011;1875;52.492;6.860;2023-02-28T08:34:55;5.67;;;2.80;;
3718;SDS011;1875;52.492;6.860;2023-02-28T08:37:23;5.83;;;1.93;;
3718;SDS011;1875;52.492;6.860;2023-02-28T08:39:51;1.67;;;1.47;;
3718;SDS011;1875;52.492;6.860;2023-02-28T08:42:23;4.00;;;1.97;;
3718;SDS011;1875;52.492;6.860;2023-02-28T08:44:51;2.57;;;1.80;;
3718;SDS011;1875;52.492;6.860;2023-02-28T08:47:18;3.27;;;2.47;;
3718;SDS011;1875;52.492;6.860;2023-02-28T08:49:46;1.63;;;1.53;;
3718;SDS011;1875;52.492;6.860;2023-02-28T08:52:14;1.70;;;1.37;;
3718;SDS011;1875;52.492;6.860;2023-02-28T08:54:42;1.67;;;1.30;;
3718;SDS011;1875;52.492;6.860;2023-02-28T08:57:09;1.47;;;1.20;;
3718;SDS011;1875;52.492;6.860;2023-02-28T08:59:39;1.33;;;1.20;;
3718;SDS011;1875;52.492;6.860;2023-02-28T09:02:08;2.70;;;1.50;;
3718;SDS011;1875;52.492;6.860;2023-02-28T09:04:36;1.60;;;1.40;;
3718;SDS011;1875;52.492;6.860;2023-02-28T09:07:03;1.70;;;1.30;;
3718;SDS011;1875;52.492;6.860;2023-02-28T09:09:31;3.17;;;1.63;;
3718;SDS011;1875;52.492;6.860;2023-02-28T09:11:59;3.37;;;1.37;;
3718;SDS011;1875;52.492;6.860;2023-02-28T09:14:26;3.53;;;1.63;;
3718;SDS011;1875;52.492;6.860;2023-02-28T09:16:56;1.70;;;1.60;;
3718;SDS011;1875;52.492;6.860;2023-02-28T09:19:23;2.00;;;1.50;;
3718;SDS011;1875;52.492;6.860;2023-02-28T09:21:51;1.97;;;1.40;;
3718;SDS011;1875;52.492;6.860;2023-02-28T09:24:19;2.30;;;1.43;;
3718;SDS011;1875;52.492;6.860;2023-02-28T09:26:46;1.53;;;1.27;;
3718;SDS011;1875;52.492;6.860;2023-02-28T09:29:29;2.83;;;1.40;;
3718;SDS011;1875;52.492;6.860;2023-02-28T09:31:59;1.47;;;1.30;;
3718;SDS011;1875;52.492;6.860;2023-02-28T09:34:27;1.57;;;1.43;;
3718;SDS011;1875;52.492;6.860;2023-02-28T09:36:57;2.50;;;1.40;;
3718;SDS011;1875;52.492;6.860;2023-02-28T09:39:25;3.53;;;1.43;;
3718;SDS011;1875;52.492;6.860;2023-02-28T09:41:55;2.57;;;1.57;;
3718;SDS011;1875;52.492;6.860;2023-02-28T09:44:26;1.50;;;1.30;;
3718;SDS011;1875;52.492;6.860;2023-02-28T09:46:57;2.83;;;1.60;;
3718;SDS011;1875;52.492;6.860;2023-02-28T09:49:30;1.63;;;1.30;;
3718;SDS011;1875;52.492;6.860;2023-02-28T09:52:02;2.53;;;1.17;;
3718;SDS011;1875;52.492;6.860;2023-02-28T09:54:35;3.20;;;1.70;;
3718;SDS011;1875;52.492;6.860;2023-02-28T09:57:06;2.40;;;1.13;;
3718;SDS011;1875;52.492;6.860;2023-02-28T09:59:40;2.07;;;1.20;;
3718;SDS011;1875;52.492;6.860;2023-02-28T10:02:17;2.30;;;1.60;;
3718;SDS011;1875;52.492;6.860;2023-02-28T10:04:50;3.20;;;1.60;;
3718;SDS011;1875;52.492;6.860;2023-02-28T10:07:23;2.53;;;1.40;;
3718;SDS011;1875;52.492;6.860;2023-02-28T10:10:02;3.33;;;1.23;;
3718;SDS011;1875;52.492;6.860;2023-02-28T10:12:32;3.17;;;1.43;;
3718;SDS011;1875;52.492;6.860;2023-02-28T10:15:00;1.87;;;1.70;;
3718;SDS011;1875;52.492;6.860;2023-02-28T10:17:32;1.73;;;1.33;;
3718;SDS011;1875;52.492;6.860;2023-02-28T10:20:21;3.00;;;2.23;;
3718;SDS011;1875;52.492;6.860;2023-02-28T10:22:57;2.33;;;1.80;;
3718;SDS011;1875;52.492;6.860;2023-02-28T10:25:26;1.37;;;1.27;;
3718;SDS011;1875;52.492;6.860;2023-02-28T10:27:56;1.43;;;1.33;;
3718;SDS011;1875;52.492;6.860;2023-02-28T10:30:28;2.23;;;1.50;;
3718;SDS011;1875;52.492;6.860;2023-02-28T10:32:57;2.20;;;1.83;;
3718;SDS011;1875;52.492;6.860;2023-02-28T10:35:25;3.20;;;1.93;;
3718;SDS011;1875;52.492;6.860;2023-02-28T10:37:54;2.20;;;1.80;;
3718;SDS011;1875;52.492;6.860;2023-02-28T10:40:28;1.80;;;1.23;;
3718;SDS011;1875;52.492;6.860;2023-02-28T10:42:59;3.53;;;1.27;;
3718;SDS011;1875;52.492;6.860;2023-02-28T10:45:28;3.53;;;2.43;;
3718;SDS011;1875;52.492;6.860;2023-02-28T10:47:59;2.67;;;1.70;;
3718;SDS011;1875;52.492;6.860;2023-02-28T10:50:32;2.17;;;1.30;;
3718;SDS011;1875;52.492;6.860;2023-02-28T10:56:14;1.47;;;1.37;;
3718;SDS011;1875;52.492;6.860;2023-02-28T10:58:51;1.73;;;1.40;;
3718;SDS011;1875;52.492;6.860;2023-02-28T11:01:21;1.77;;;1.60;;
3718;SDS011;1875;52.492;6.860;2023-02-28T11:03:52;1.40;;;1.10;;
3718;SDS011;1875;52.492;6.860;2023-02-28T11:06:20;1.27;;;1.17;;
3718;SDS011;1875;52.492;6.860;2023-02-28T11:08:50;4.10;;;1.90;;
3718;SDS011;1875;52.492;6.860;2023-02-28T11:11:19;2.00;;;1.70;;
3718;SDS011;1875;52.492;6.860;2023-02-28T11:13:50;1.43;;;1.30;;
3718;SDS011;1875;52.492;6.860;2023-02-28T11:16:19;1.73;;;1.37;;
3718;SDS011;1875;52.492;6.860;2023-02-28T11:18:48;4.00;;;1.63;;
3718;SDS011;1875;52.492;6.860;2023-02-28T11:21:20;2.73;;;1.50;;
3718;SDS011;1875;52.492;6.860;2023-02-28T11:23:50;3.17;;;1.83;;
3718;SDS011;1875;52.492;6.860;2023-02-28T11:32:05;3.03;;;1.97;;
3718;SDS011;1875;52.492;6.860;2023-02-28T11:34:40;2.20;;;1.80;;
3718;SDS011;1875;52.492;6.860;2023-02-28T11:37:11;2.57;;;1.53;;
3718;SDS011;1875;52.492;6.860;2023-02-28T11:39:41;2.83;;;1.80;;
3718;SDS011;1875;52.492;6.860;2023-02-28T11:42:22;3.63;;;1.67;;
3718;SDS011;1875;52.492;6.860;2023-02-28T11:45:02;2.77;;;1.83;;
3718;SDS011;1875;52.492;6.860;2023-02-28T11:47:38;1.60;;;1.50;;
3718;SDS011;1875;52.492;6.860;2023-02-28T11:50:16;1.97;;;1.77;;
3718;SDS011;1875;52.492;6.860;2023-02-28T11:52:50;4.00;;;1.93;;
3718;SDS011;1875;52.492;6.860;2023-02-28T11:55:20;2.90;;;1.83;;
3718;SDS011;1875;52.492;6.860;2023-02-28T11:58:07;1.57;;;1.43;;
3718;SDS011;1875;52.492;6.860;2023-02-28T12:00:52;2.73;;;1.80;;
3718;SDS011;1875;52.492;6.860;2023-02-28T12:03:29;3.43;;;1.90;;
3718;SDS011;1875;52.492;6.860;2023-02-28T12:06:03;2.57;;;1.90;;
3718;SDS011;1875;52.492;6.860;2023-02-28T12:08:47;2.77;;;1.70;;
3718;SDS011;1875;52.492;6.860;2023-02-28T12:11:21;2.97;;;1.90;;
3718;SDS011;1875;52.492;6.860;2023-02-28T12:13:58;2.70;;;1.80;;
3718;SDS011;1875;52.492;6.860;2023-02-28T12:16:49;4.77;;;1.93;;
3718;SDS011;1875;52.492;6.860;2023-02-28T12:19:23;3.03;;;1.70;;
3718;SDS011;1875;52.492;6.860;2023-02-28T12:25:02;3.43;;;1.77;;
3718;SDS011;1875;52.492;6.860;2023-02-28T12:27:43;1.97;;;1.40;;
3718;SDS011;1875;52.492;6.860;2023-02-28T12:30:15;1.90;;;1.70;;
3718;SDS011;1875;52.492;6.860;2023-02-28T12:32:45;2.77;;;1.80;;
3718;SDS011;1875;52.492;6.860;2023-02-28T12:35:16;3.70;;;1.70;;
3718;SDS011;1875;52.492;6.860;2023-02-28T12:37:49;3.33;;;1.70;;
3718;SDS011;1875;52.492;6.860;2023-02-28T12:40:19;1.90;;;1.40;;
3718;SDS011;1875;52.492;6.860;2023-02-28T12:42:50;1.83;;;1.30;;
3718;SDS011;1875;52.492;6.860;2023-02-28T12:45:20;3.87;;;1.80;;
3718;SDS011;1875;52.492;6.860;2023-02-28T12:47:50;1.80;;;1.70;;
3718;SDS011;1875;52.492;6.860;2023-02-28T12:50:22;3.67;;;2.10;;
3718;SDS011;1875;52.492;6.860;2023-02-28T12:52:52;6.07;;;1.90;;
3718;SDS011;1875;52.492;6.860;2023-02-28T12:55:25;2.57;;;1.73;;
3718;SDS011;1875;52.492;6.860;2023-02-28T12:58:01;2.83;;;1.43;;
3718;SDS011;1875;52.492;6.860;2023-02-28T13:00:35;1.67;;;1.30;;
3718;SDS011;1875;52.492;6.860;2023-02-28T13:03:18;6.00;;;1.90;;
3718;SDS011;1875;52.492;6.860;2023-02-28T13:06:07;2.70;;;1.80;;
3718;SDS011;1875;52.492;6.860;2023-02-28T13:09:02;3.40;;;1.63;;
3718;SDS011;1875;52.492;6.860;2023-02-28T13:11:39;3.67;;;2.03;;
3718;SDS011;1875;52.492;6.860;2023-02-28T13:17:03;2.07;;;1.50;;
3718;SDS011;1875;52.492;6.860;2023-02-28T13:19:39;2.40;;;1.77;;
3718;SDS011;1875;52.492;6.860;2023-02-28T13:22:16;1.60;;;1.50;;
3718;SDS011;1875;52.492;6.860;2023-02-28T13:24:46;1.63;;;1.33;;
3718;SDS011;1875;52.492;6.860;2023-02-28T13:33:27;5.07;;;1.90;;
3718;SDS011;1875;52.492;6.860;2023-02-28T13:36:09;1.97;;;1.70;;
3718;SDS011;1875;52.492;6.860;2023-02-28T13:38:40;3.20;;;1.50;;
3718;SDS011;1875;52.492;6.860;2023-02-28T13:44:22;3.40;;;1.50;;
3718;SDS011;1875;52.492;6.860;2023-02-28T13:49:52;2.03;;;1.53;;
3718;SDS011;1875;52.492;6.860;2023-02-28T13:52:21;2.27;;;1.50;;
3718;SDS011;1875;52.492;6.860;2023-02-28T13:54:57;2.60;;;1.60;;
3718;SDS011;1875;52.492;6.860;2023-02-28T13:57:53;1.90;;;1.23;;
3718;SDS011;1875;52.492;6.860;2023-02-28T14:00:34;2.90;;;1.50;;
3718;SDS011;1875;52.492;6.860;2023-02-28T14:03:17;1.70;;;1.40;;
3718;SDS011;1875;52.492;6.860;2023-02-28T14:06:14;1.80;;;1.40;;
3718;SDS011;1875;52.492;6.860;2023-02-28T14:08:46;5.87;;;3.70;;
3718;SDS011;1875;52.492;6.860;2023-02-28T14:11:27;1.50;;;1.40;;
3718;SDS011;1875;52.492;6.860;2023-02-28T14:13:59;1.30;;;1.20;;
3718;SDS011;1875;52.492;6.860;2023-02-28T14:16:27;2.80;;;1.40;;
3718;SDS011;1875;52.492;6.860;2023-02-28T14:19:09;1.83;;;1.70;;
3718;SDS011;1875;52.492;6.860;2023-02-28T14:21:43;1.83;;;1.50;;
3718;SDS011;1875;52.492;6.860;2023-02-28T14:27:28;3.70;;;1.63;;
3718;SDS011;1875;52.492;6.860;2023-02-28T14:33:14;2.03;;;1.23;;
3718;SDS011;1875;52.492;6.860;2023-02-28T14:35:53;1.87;;;1.30;;
3718;SDS011;1875;52.492;6.860;2023-02-28T14:38:29;1.30;;;1.20;;
3718;SDS011;1875;52.492;6.860;2023-02-28T14:41:00;2.43;;;1.60;;
3718;SDS011;1875;52.492;6.860;2023-02-28T14:43:30;2.70;;;1.37;;
3718;SDS011;1875;52.492;6.860;2023-02-28T14:45:59;1.47;;;1.27;;
3718;SDS011;1875;52.492;6.860;2023-02-28T14:48:28;1.93;;;1.20;;
3718;SDS011;1875;52.492;6.860;2023-02-28T14:50:56;1.50;;;1.00;;
3718;SDS011;1875;52.492;6.860;2023-02-28T14:53:25;1.67;;;1.33;;
3718;SDS011;1875;52.492;6.860;2023-02-28T14:55:55;2.03;;;1.10;;
3718;SDS011;1875;52.492;6.860;2023-02-28T14:58:24;1.73;;;1.30;;
3718;SDS011;1875;52.492;6.860;2023-02-28T15:00:53;1.77;;;1.67;;
3718;SDS011;1875;52.492;6.860;2023-02-28T15:03:23;2.93;;;1.20;;
3718;SDS011;1875;52.492;6.860;2023-02-28T15:05:55;1.50;;;1.40;;
3718;SDS011;1875;52.492;6.860;2023-02-28T15:08:25;1.63;;;1.40;;
3718;SDS011;1875;52.492;6.860;2023-02-28T15:10:57;2.10;;;1.50;;
3718;SDS011;1875;52.492;6.860;2023-02-28T15:13:29;1.50;;;1.40;;
3718;SDS011;1875;52.492;6.860;2023-02-28T15:16:03;1.97;;;1.40;;
3718;SDS011;1875;52.492;6.860;2023-02-28T15:18:35;2.40;;;1.40;;
3718;SDS011;1875;52.492;6.860;2023-02-28T15:21:09;4.43;;;1.87;;
3718;SDS011;1875;52.492;6.860;2023-02-28T15:23:41;1.67;;;1.57;;
3718;SDS011;1875;52.492;6.860;2023-02-28T15:26:13;3.27;;;1.57;;
3718;SDS011;1875;52.492;6.860;2023-02-28T15:28:41;2.77;;;1.40;;
3718;SDS011;1875;52.492;6.860;2023-02-28T15:31:18;3.23;;;1.40;;
3718;SDS011;1875;52.492;6.860;2023-02-28T15:33:52;2.77;;;1.73;;
3718;SDS011;1875;52.492;6.860;2023-02-28T15:36:23;4.47;;;1.63;;
3718;SDS011;1875;52.492;6.860;2023-02-28T15:38:54;2.97;;;2.07;;
3718;SDS011;1875;52.492;6.860;2023-02-28T15:41:36;1.33;;;1.23;;
3718;SDS011;1875;52.492;6.860;2023-02-28T15:44:15;3.33;;;1.80;;
3718;SDS011;1875;52.492;6.860;2023-02-28T15:46:57;2.90;;;1.90;;
3718;SDS011;1875;52.492;6.860;2023-02-28T15:49:27;4.47;;;2.20;;
3718;SDS011;1875;52.492;6.860;2023-02-28T15:51:59;2.83;;;2.10;;
3718;SDS011;1875;52.492;6.860;2023-02-28T15:54:27;3.30;;;2.03;;
3718;SDS011;1875;52.492;6.860;2023-02-28T15:57:00;3.53;;;1.60;;
3718;SDS011;1875;52.492;6.860;2023-02-28T15:59:30;3.70;;;2.27;;
3718;SDS011;1875;52.492;6.860;2023-02-28T16:02:12;5.00;;;1.97;;
3718;SDS011;1875;52.492;6.860;2023-02-28T16:05:00;2.33;;;1.83;;
3718;SDS011;1875;52.492;6.860;2023-02-28T16:07:40;3.63;;;1.90;;
3718;SDS011;1875;52.492;6.860;2023-02-28T16:10:09;1.87;;;1.63;;
3718;SDS011;1875;52.492;6.860;2023-02-28T16:12:42;1.57;;;1.40;;
3718;SDS011;1875;52.492;6.860;2023-02-28T16:15:16;8.47;;;2.10;;
3718;SDS011;1875;52.492;6.860;2023-02-28T16:17:46;5.40;;;2.67;;
3718;SDS011;1875;52.492;6.860;2023-02-28T16:20:14;2.03;;;1.60;;